sensor_id;sensor_type;location;lat;lon;timestamp;P1;durP1;ratioP1;P2;durP2;ratioP2
28266;SDS011;15525;45.568;5.448;2023-08-01T00:02:18;7.60;;;4.97;;
28266;SDS011;15525;45.568;5.448;2023-08-01T00:04:44;10.57;;;4.80;;
28266;SDS011;15525;45.568;5.448;2023-08-01T00:07:09;7.97;;;4.70;;
28266;SDS011;15525;45.568;5.448;2023-08-01T00:09:35;11.68;;;4.82;;
28266;SDS011;15525;45.568;5.448;2023-08-01T00:12:00;9.57;;;4.65;;
28266;SDS011;15525;45.568;5.448;2023-08-01T00:14:26;7.05;;;4.78;;
28266;SDS011;15525;45.568;5.448;2023-08-01T00:16:51;9.63;;;5.35;;
28266;SDS011;15525;45.568;5.448;2023-08-01T00:19:17;8.98;;;4.70;;
28266;SDS011;15525;45.568;5.448;2023-08-01T00:21:43;7.65;;;4.63;;
28266;SDS011;15525;45.568;5.448;2023-08-01T00:24:08;8.50;;;5.18;;
28266;SDS011;15525;45.568;5.448;2023-08-01T00:26:34;8.70;;;4.72;;
28266;SDS011;15525;45.568;5.448;2023-08-01T00:28:59;9.35;;;5.20;;
28266;SDS011;15525;45.568;5.448;2023-08-01T00:31:25;9.63;;;5.07;;
28266;SDS011;15525;45.568;5.448;2023-08-01T00:33:50;8.65;;;4.97;;
28266;SDS011;15525;45.568;5.448;2023-08-01T00:41:25;8.50;;;4.65;;
28266;SDS011;15525;45.568;5.448;2023-08-01T00:43:51;9.45;;;5.38;;
28266;SDS011;15525;45.568;5.448;2023-08-01T00:46:16;7.13;;;4.75;;
28266;SDS011;15525;45.568;5.448;2023-08-01T00:48:42;6.97;;;4.57;;
28266;SDS011;15525;45.568;5.448;2023-08-01T00:51:08;8.98;;;4.63;;
28266;SDS011;15525;45.568;5.448;2023-08-01T00:53:35;10.45;;;5.45;;
28266;SDS011;15525;45.568;5.448;2023-08-01T00:56:01;8.63;;;5.07;;
28266;SDS011;15525;45.568;5.448;2023-08-01T00:58:27;6.78;;;4.57;;
28266;SDS011;15525;45.568;5.448;2023-08-01T01:00:52;8.52;;;5.15;;
28266;SDS011;15525;45.568;5.448;2023-08-01T01:03:20;8.82;;;5.30;;
28266;SDS011;15525;45.568;5.448;2023-08-01T01:05:49;7.75;;;4.90;;
28266;SDS011;15525;45.568;5.448;2023-08-01T01:08:21;10.93;;;5.15;;
28266;SDS011;15525;45.568;5.448;2023-08-01T01:10:46;10.77;;;4.85;;
28266;SDS011;15525;45.568;5.448;2023-08-01T01:13:12;10.63;;;5.28;;
28266;SDS011;15525;45.568;5.448;2023-08-01T01:15:37;7.78;;;4.75;;
28266;SDS011;15525;45.568;5.448;2023-08-01T01:18:03;12.77;;;5.50;;
28266;SDS011;15525;45.568;5.448;2023-08-01T01:20:34;8.35;;;5.28;;
28266;SDS011;15525;45.568;5.448;2023-08-01T01:23:00;10.02;;;5.10;;
28266;SDS011;15525;45.568;5.448;2023-08-01T01:25:28;9.70;;;4.90;;
28266;SDS011;15525;45.568;5.448;2023-08-01T01:27:56;7.63;;;4.60;;
28266;SDS011;15525;45.568;5.448;2023-08-01T01:30:22;9.82;;;4.90;;
28266;SDS011;15525;45.568;5.448;2023-08-01T01:32:48;7.72;;;4.93;;
28266;SDS011;15525;45.568;5.448;2023-08-01T01:35:14;10.38;;;5.43;;
28266;SDS011;15525;45.568;5.448;2023-08-01T01:37:39;7.20;;;4.97;;
28266;SDS011;15525;45.568;5.448;2023-08-01T01:40:05;8.73;;;5.38;;
28266;SDS011;15525;45.568;5.448;2023-08-01T01:42:31;9.02;;;5.38;;
28266;SDS011;15525;45.568;5.448;2023-08-01T01:44:57;9.27;;;5.95;;
28266;SDS011;15525;45.568;5.448;2023-08-01T01:47:22;11.95;;;5.38;;
28266;SDS011;15525;45.568;5.448;2023-08-01T01:49:47;10.75;;;5.10;;
28266;SDS011;15525;45.568;5.448;2023-08-01T01:52:13;8.27;;;5.25;;
28266;SDS011;15525;45.568;5.448;2023-08-01T01:54:38;8.90;;;4.72;;
28266;SDS011;15525;45.568;5.448;2023-08-01T01:57:04;8.63;;;5.25;;
28266;SDS011;15525;45.568;5.448;2023-08-01T01:59:30;8.38;;;5.78;;
28266;SDS011;15525;45.568;5.448;2023-08-01T02:01:55;8.73;;;4.90;;
28266;SDS011;15525;45.568;5.448;2023-08-01T02:04:20;8.73;;;5.00;;
28266;SDS011;15525;45.568;5.448;2023-08-01T02:06:46;9.27;;;5.32;;
28266;SDS011;15525;45.568;5.448;2023-08-01T02:09:12;9.43;;;5.07;;
28266;SDS011;15525;45.568;5.448;2023-08-01T02:11:38;10.65;;;5.70;;
28266;SDS011;15525;45.568;5.448;2023-08-01T02:14:03;7.35;;;5.22;;
28266;SDS011;15525;45.568;5.448;2023-08-01T02:16:29;10.23;;;5.30;;
28266;SDS011;15525;45.568;5.448;2023-08-01T02:18:54;9.75;;;4.95;;
28266;SDS011;15525;45.568;5.448;2023-08-01T02:21:20;9.45;;;5.20;;
28266;SDS011;15525;45.568;5.448;2023-08-01T02:23:45;8.63;;;5.45;;
28266;SDS011;15525;45.568;5.448;2023-08-01T02:26:11;8.45;;;5.40;;
28266;SDS011;15525;45.568;5.448;2023-08-01T02:28:36;9.90;;;5.60;;
28266;SDS011;15525;45.568;5.448;2023-08-01T02:31:02;8.60;;;5.05;;
28266;SDS011;15525;45.568;5.448;2023-08-01T02:33:27;8.82;;;5.05;;
28266;SDS011;15525;45.568;5.448;2023-08-01T02:35:52;9.40;;;5.05;;
28266;SDS011;15525;45.568;5.448;2023-08-01T02:38:18;11.43;;;5.80;;
28266;SDS011;15525;45.568;5.448;2023-08-01T02:40:43;8.98;;;4.88;;
28266;SDS011;15525;45.568;5.448;2023-08-01T02:43:09;10.35;;;5.53;;
28266;SDS011;15525;45.568;5.448;2023-08-01T02:45:34;7.68;;;4.75;;
28266;SDS011;15525;45.568;5.448;2023-08-01T02:47:59;8.00;;;4.72;;
28266;SDS011;15525;45.568;5.448;2023-08-01T02:50:25;7.10;;;4.60;;
28266;SDS011;15525;45.568;5.448;2023-08-01T02:52:50;8.98;;;5.25;;
28266;SDS011;15525;45.568;5.448;2023-08-01T02:55:16;9.77;;;5.82;;
28266;SDS011;15525;45.568;5.448;2023-08-01T02:57:41;8.77;;;4.93;;
28266;SDS011;15525;45.568;5.448;2023-08-01T03:00:07;8.63;;;5.00;;
28266;SDS011;15525;45.568;5.448;2023-08-01T03:02:36;8.80;;;5.40;;
28266;SDS011;15525;45.568;5.448;2023-08-01T03:05:03;8.35;;;5.47;;
28266;SDS011;15525;45.568;5.448;2023-08-01T03:07:30;8.23;;;4.93;;
28266;SDS011;15525;45.568;5.448;2023-08-01T03:09:56;7.53;;;4.95;;
28266;SDS011;15525;45.568;5.448;2023-08-01T03:12:21;8.55;;;5.50;;
28266;SDS011;15525;45.568;5.448;2023-08-01T03:14:47;9.52;;;4.90;;
28266;SDS011;15525;45.568;5.448;2023-08-01T03:17:12;11.05;;;5.55;;
28266;SDS011;15525;45.568;5.448;2023-08-01T03:19:38;8.73;;;5.00;;
28266;SDS011;15525;45.568;5.448;2023-08-01T03:22:04;7.90;;;5.13;;
28266;SDS011;15525;45.568;5.448;2023-08-01T03:24:29;11.68;;;5.68;;
28266;SDS011;15525;45.568;5.448;2023-08-01T03:26:55;6.93;;;4.82;;
28266;SDS011;15525;45.568;5.448;2023-08-01T03:29:20;9.80;;;5.30;;
28266;SDS011;15525;45.568;5.448;2023-08-01T03:31:46;11.93;;;5.47;;
28266;SDS011;15525;45.568;5.448;2023-08-01T03:34:12;8.30;;;4.95;;
28266;SDS011;15525;45.568;5.448;2023-08-01T03:36:37;9.13;;;5.15;;
28266;SDS011;15525;45.568;5.448;2023-08-01T03:39:03;8.85;;;5.30;;
28266;SDS011;15525;45.568;5.448;2023-08-01T03:41:29;9.63;;;5.35;;
28266;SDS011;15525;45.568;5.448;2023-08-01T03:43:54;8.60;;;5.40;;
28266;SDS011;15525;45.568;5.448;2023-08-01T03:46:20;10.40;;;5.45;;
28266;SDS011;15525;45.568;5.448;2023-08-01T03:48:45;9.27;;;5.18;;
28266;SDS011;15525;45.568;5.448;2023-08-01T03:51:11;10.40;;;5.32;;
28266;SDS011;15525;45.568;5.448;2023-08-01T03:53:36;8.82;;;5.53;;
28266;SDS011;15525;45.568;5.448;2023-08-01T03:56:01;8.60;;;5.20;;
28266;SDS011;15525;45.568;5.448;2023-08-01T03:58:27;8.95;;;5.63;;
28266;SDS011;15525;45.568;5.448;2023-08-01T04:00:52;11.65;;;5.47;;
28266;SDS011;15525;45.568;5.448;2023-08-01T04:03:18;9.07;;;5.22;;
28266;SDS011;15525;45.568;5.448;2023-08-01T04:05:44;9.90;;;5.68;;
28266;SDS011;15525;45.568;5.448;2023-08-01T04:08:09;9.40;;;5.22;;
28266;SDS011;15525;45.568;5.448;2023-08-01T04:10:34;8.65;;;5.38;;
28266;SDS011;15525;45.568;5.448;2023-08-01T04:13:00;12.48;;;5.82;;
28266;SDS011;15525;45.568;5.448;2023-08-01T04:15:25;8.70;;;5.80;;
28266;SDS011;15525;45.568;5.448;2023-08-01T04:17:51;9.35;;;5.90;;
28266;SDS011;15525;45.568;5.448;2023-08-01T04:20:16;10.63;;;5.40;;
28266;SDS011;15525;45.568;5.448;2023-08-01T04:22:42;8.98;;;5.28;;
28266;SDS011;15525;45.568;5.448;2023-08-01T04:25:07;9.82;;;5.53;;
28266;SDS011;15525;45.568;5.448;2023-08-01T04:27:33;10.18;;;5.53;;
28266;SDS011;15525;45.568;5.448;2023-08-01T04:29:58;9.70;;;5.47;;
28266;SDS011;15525;45.568;5.448;2023-08-01T04:32:24;8.65;;;5.60;;
28266;SDS011;15525;45.568;5.448;2023-08-01T04:34:49;8.13;;;5.20;;
28266;SDS011;15525;45.568;5.448;2023-08-01T04:37:15;10.60;;;5.50;;
28266;SDS011;15525;45.568;5.448;2023-08-01T04:39:40;10.00;;;5.53;;
28266;SDS011;15525;45.568;5.448;2023-08-01T04:42:06;13.10;;;5.93;;
28266;SDS011;15525;45.568;5.448;2023-08-01T04:44:31;10.43;;;5.70;;
28266;SDS011;15525;45.568;5.448;2023-08-01T04:46:57;9.52;;;5.80;;
28266;SDS011;15525;45.568;5.448;2023-08-01T04:49:22;9.63;;;5.30;;
28266;SDS011;15525;45.568;5.448;2023-08-01T04:51:49;10.73;;;6.00;;
28266;SDS011;15525;45.568;5.448;2023-08-01T04:54:15;9.82;;;5.78;;
28266;SDS011;15525;45.568;5.448;2023-08-01T04:56:40;10.10;;;6.18;;
28266;SDS011;15525;45.568;5.448;2023-08-01T04:59:06;10.98;;;6.18;;
28266;SDS011;15525;45.568;5.448;2023-08-01T05:01:31;9.57;;;5.47;;
28266;SDS011;15525;45.568;5.448;2023-08-01T05:03:59;14.05;;;5.63;;
28266;SDS011;15525;45.568;5.448;2023-08-01T05:06:25;11.55;;;6.05;;
28266;SDS011;15525;45.568;5.448;2023-08-01T05:08:50;14.23;;;6.63;;
28266;SDS011;15525;45.568;5.448;2023-08-01T05:11:16;13.13;;;6.07;;
28266;SDS011;15525;45.568;5.448;2023-08-01T05:13:41;15.20;;;5.82;;
28266;SDS011;15525;45.568;5.448;2023-08-01T05:16:07;11.70;;;5.25;;
28266;SDS011;15525;45.568;5.448;2023-08-01T05:18:32;9.30;;;5.43;;
28266;SDS011;15525;45.568;5.448;2023-08-01T05:20:58;10.07;;;6.00;;
28266;SDS011;15525;45.568;5.448;2023-08-01T05:23:23;8.65;;;5.57;;
28266;SDS011;15525;45.568;5.448;2023-08-01T05:25:48;9.93;;;5.60;;
28266;SDS011;15525;45.568;5.448;2023-08-01T05:28:14;11.52;;;5.80;;
28266;SDS011;15525;45.568;5.448;2023-08-01T05:30:40;13.50;;;5.95;;
28266;SDS011;15525;45.568;5.448;2023-08-01T05:33:06;15.30;;;5.82;;
28266;SDS011;15525;45.568;5.448;2023-08-01T05:35:31;11.13;;;5.60;;
28266;SDS011;15525;45.568;5.448;2023-08-01T05:37:56;14.55;;;6.28;;
28266;SDS011;15525;45.568;5.448;2023-08-01T05:40:22;21.05;;;6.68;;
28266;SDS011;15525;45.568;5.448;2023-08-01T05:42:47;24.13;;;6.57;;
28266;SDS011;15525;45.568;5.448;2023-08-01T05:45:13;20.73;;;6.25;;
28266;SDS011;15525;45.568;5.448;2023-08-01T05:47:38;18.58;;;6.57;;
28266;SDS011;15525;45.568;5.448;2023-08-01T05:50:05;22.45;;;6.43;;
28266;SDS011;15525;45.568;5.448;2023-08-01T05:52:31;19.42;;;7.03;;
28266;SDS011;15525;45.568;5.448;2023-08-01T05:54:58;14.98;;;6.90;;
28266;SDS011;15525;45.568;5.448;2023-08-01T05:57:23;14.15;;;6.07;;
28266;SDS011;15525;45.568;5.448;2023-08-01T05:59:49;24.80;;;6.50;;
28266;SDS011;15525;45.568;5.448;2023-08-01T06:02:15;17.50;;;6.03;;
28266;SDS011;15525;45.568;5.448;2023-08-01T06:04:40;13.73;;;6.63;;
28266;SDS011;15525;45.568;5.448;2023-08-01T06:07:05;16.70;;;6.28;;
28266;SDS011;15525;45.568;5.448;2023-08-01T06:09:31;21.00;;;7.55;;
28266;SDS011;15525;45.568;5.448;2023-08-01T06:11:56;15.55;;;6.72;;
28266;SDS011;15525;45.568;5.448;2023-08-01T06:14:22;13.32;;;6.38;;
28266;SDS011;15525;45.568;5.448;2023-08-01T06:16:48;20.90;;;6.95;;
28266;SDS011;15525;45.568;5.448;2023-08-01T06:19:13;12.18;;;7.28;;
28266;SDS011;15525;45.568;5.448;2023-08-01T06:21:39;16.85;;;7.43;;
28266;SDS011;15525;45.568;5.448;2023-08-01T06:24:04;14.77;;;8.63;;
28266;SDS011;15525;45.568;5.448;2023-08-01T06:26:29;17.38;;;7.72;;
28266;SDS011;15525;45.568;5.448;2023-08-01T06:28:55;18.08;;;7.43;;
28266;SDS011;15525;45.568;5.448;2023-08-01T06:31:21;15.93;;;7.32;;
28266;SDS011;15525;45.568;5.448;2023-08-01T06:33:47;13.88;;;6.53;;
28266;SDS011;15525;45.568;5.448;2023-08-01T06:36:12;11.05;;;5.90;;
28266;SDS011;15525;45.568;5.448;2023-08-01T06:38:38;19.15;;;7.30;;
28266;SDS011;15525;45.568;5.448;2023-08-01T06:41:04;16.20;;;6.88;;
28266;SDS011;15525;45.568;5.448;2023-08-01T06:43:29;17.67;;;7.57;;
28266;SDS011;15525;45.568;5.448;2023-08-01T06:45:55;19.63;;;7.75;;
28266;SDS011;15525;45.568;5.448;2023-08-01T06:48:20;15.32;;;7.72;;
28266;SDS011;15525;45.568;5.448;2023-08-01T06:50:46;12.07;;;7.40;;
28266;SDS011;15525;45.568;5.448;2023-08-01T06:53:11;12.63;;;6.93;;
28266;SDS011;15525;45.568;5.448;2023-08-01T06:55:37;14.50;;;7.43;;
28266;SDS011;15525;45.568;5.448;2023-08-01T06:58:02;14.93;;;8.00;;
28266;SDS011;15525;45.568;5.448;2023-08-01T07:00:28;13.85;;;8.00;;
28266;SDS011;15525;45.568;5.448;2023-08-01T07:02:53;18.15;;;8.43;;
28266;SDS011;15525;45.568;5.448;2023-08-01T07:05:19;15.55;;;8.15;;
28266;SDS011;15525;45.568;5.448;2023-08-01T07:07:44;12.57;;;7.55;;
28266;SDS011;15525;45.568;5.448;2023-08-01T07:10:10;16.63;;;8.20;;
28266;SDS011;15525;45.568;5.448;2023-08-01T07:12:35;19.10;;;7.25;;
28266;SDS011;15525;45.568;5.448;2023-08-01T07:15:01;15.43;;;7.97;;
28266;SDS011;15525;45.568;5.448;2023-08-01T07:17:26;13.23;;;7.38;;
28266;SDS011;15525;45.568;5.448;2023-08-01T07:19:52;14.18;;;7.55;;
28266;SDS011;15525;45.568;5.448;2023-08-01T07:22:18;13.65;;;7.30;;
28266;SDS011;15525;45.568;5.448;2023-08-01T07:24:44;16.60;;;8.40;;
28266;SDS011;15525;45.568;5.448;2023-08-01T07:27:09;13.57;;;7.22;;
28266;SDS011;15525;45.568;5.448;2023-08-01T07:29:34;13.63;;;6.80;;
28266;SDS011;15525;45.568;5.448;2023-08-01T07:32:00;14.70;;;6.75;;
28266;SDS011;15525;45.568;5.448;2023-08-01T07:34:25;10.63;;;6.28;;
28266;SDS011;15525;45.568;5.448;2023-08-01T07:36:51;11.10;;;6.60;;
28266;SDS011;15525;45.568;5.448;2023-08-01T07:39:16;12.52;;;6.55;;
28266;SDS011;15525;45.568;5.448;2023-08-01T07:41:42;13.75;;;7.38;;
28266;SDS011;15525;45.568;5.448;2023-08-01T07:44:07;14.30;;;7.30;;
28266;SDS011;15525;45.568;5.448;2023-08-01T07:46:33;14.02;;;6.95;;
28266;SDS011;15525;45.568;5.448;2023-08-01T07:48:58;13.35;;;7.28;;
28266;SDS011;15525;45.568;5.448;2023-08-01T07:51:26;10.98;;;7.28;;
28266;SDS011;15525;45.568;5.448;2023-08-01T07:53:52;12.63;;;7.28;;
28266;SDS011;15525;45.568;5.448;2023-08-01T07:56:19;13.38;;;6.85;;
28266;SDS011;15525;45.568;5.448;2023-08-01T07:58:45;10.75;;;6.78;;
28266;SDS011;15525;45.568;5.448;2023-08-01T08:01:10;10.10;;;6.82;;
28266;SDS011;15525;45.568;5.448;2023-08-01T08:03:36;12.68;;;6.88;;
28266;SDS011;15525;45.568;5.448;2023-08-01T08:06:01;11.38;;;7.07;;
28266;SDS011;15525;45.568;5.448;2023-08-01T08:08:28;11.82;;;6.53;;
28266;SDS011;15525;45.568;5.448;2023-08-01T08:10:54;13.73;;;6.70;;
28266;SDS011;15525;45.568;5.448;2023-08-01T08:13:20;8.93;;;6.15;;
28266;SDS011;15525;45.568;5.448;2023-08-01T08:15:45;11.57;;;6.25;;
28266;SDS011;15525;45.568;5.448;2023-08-01T08:18:11;9.75;;;5.97;;
28266;SDS011;15525;45.568;5.448;2023-08-01T08:20:44;9.02;;;5.75;;
28266;SDS011;15525;45.568;5.448;2023-08-01T08:23:10;11.00;;;5.80;;
28266;SDS011;15525;45.568;5.448;2023-08-01T08:25:39;12.50;;;6.10;;
28266;SDS011;15525;45.568;5.448;2023-08-01T08:28:05;9.95;;;6.05;;
28266;SDS011;15525;45.568;5.448;2023-08-01T08:30:30;10.15;;;5.75;;
28266;SDS011;15525;45.568;5.448;2023-08-01T08:32:57;11.60;;;5.75;;
28266;SDS011;15525;45.568;5.448;2023-08-01T08:35:23;9.60;;;5.93;;
28266;SDS011;15525;45.568;5.448;2023-08-01T08:37:49;9.52;;;5.18;;
28266;SDS011;15525;45.568;5.448;2023-08-01T08:40:14;7.07;;;4.97;;
28266;SDS011;15525;45.568;5.448;2023-08-01T08:42:40;11.13;;;5.80;;
28266;SDS011;15525;45.568;5.448;2023-08-01T08:45:06;9.63;;;5.80;;
28266;SDS011;15525;45.568;5.448;2023-08-01T08:47:35;9.27;;;6.05;;
28266;SDS011;15525;45.568;5.448;2023-08-01T08:50:03;9.70;;;5.13;;
28266;SDS011;15525;45.568;5.448;2023-08-01T08:52:30;7.95;;;5.20;;
28266;SDS011;15525;45.568;5.448;2023-08-01T08:54:55;9.82;;;5.55;;
28266;SDS011;15525;45.568;5.448;2023-08-01T08:57:22;8.60;;;4.93;;
28266;SDS011;15525;45.568;5.448;2023-08-01T08:59:48;8.75;;;5.18;;
28266;SDS011;15525;45.568;5.448;2023-08-01T09:02:15;7.53;;;4.90;;
28266;SDS011;15525;45.568;5.448;2023-08-01T09:04:42;8.23;;;5.20;;
28266;SDS011;15525;45.568;5.448;2023-08-01T09:07:08;10.52;;;5.07;;
28266;SDS011;15525;45.568;5.448;2023-08-01T09:09:38;7.28;;;4.93;;
28266;SDS011;15525;45.568;5.448;2023-08-01T09:12:03;9.05;;;5.38;;
28266;SDS011;15525;45.568;5.448;2023-08-01T09:14:29;8.52;;;5.05;;
28266;SDS011;15525;45.568;5.448;2023-08-01T09:17:05;11.40;;;5.18;;
28266;SDS011;15525;45.568;5.448;2023-08-01T09:19:34;8.77;;;5.15;;
28266;SDS011;15525;45.568;5.448;2023-08-01T09:21:59;7.53;;;5.07;;
28266;SDS011;15525;45.568;5.448;2023-08-01T09:24:25;8.80;;;5.75;;
28266;SDS011;15525;45.568;5.448;2023-08-01T09:26:50;10.48;;;5.53;;
28266;SDS011;15525;45.568;5.448;2023-08-01T09:29:16;7.10;;;5.07;;
28266;SDS011;15525;45.568;5.448;2023-08-01T09:31:42;9.70;;;5.90;;
28266;SDS011;15525;45.568;5.448;2023-08-01T09:34:24;6.70;;;4.30;;
28266;SDS011;15525;45.568;5.448;2023-08-01T09:36:51;7.20;;;4.78;;
28266;SDS011;15525;45.568;5.448;2023-08-01T09:39:22;12.00;;;5.22;;
28266;SDS011;15525;45.568;5.448;2023-08-01T09:41:57;7.13;;;4.50;;
28266;SDS011;15525;45.568;5.448;2023-08-01T09:44:24;6.40;;;4.30;;
28266;SDS011;15525;45.568;5.448;2023-08-01T09:47:10;6.22;;;3.53;;
28266;SDS011;15525;45.568;5.448;2023-08-01T09:49:46;8.50;;;3.67;;
28266;SDS011;15525;45.568;5.448;2023-08-01T09:52:14;4.75;;;3.35;;
28266;SDS011;15525;45.568;5.448;2023-08-01T09:54:39;6.70;;;3.85;;
28266;SDS011;15525;45.568;5.448;2023-08-01T09:57:05;6.30;;;3.80;;
28266;SDS011;15525;45.568;5.448;2023-08-01T09:59:31;5.38;;;3.65;;
28266;SDS011;15525;45.568;5.448;2023-08-01T10:01:59;5.35;;;3.63;;
28266;SDS011;15525;45.568;5.448;2023-08-01T10:04:27;4.78;;;2.80;;
28266;SDS011;15525;45.568;5.448;2023-08-01T10:06:59;4.20;;;2.97;;
28266;SDS011;15525;45.568;5.448;2023-08-01T10:09:37;4.53;;;3.20;;
28266;SDS011;15525;45.568;5.448;2023-08-01T10:12:03;5.28;;;3.15;;
28266;SDS011;15525;45.568;5.448;2023-08-01T10:14:30;4.07;;;2.95;;
28266;SDS011;15525;45.568;5.448;2023-08-01T10:16:58;5.43;;;3.47;;
28266;SDS011;15525;45.568;5.448;2023-08-01T10:19:23;4.28;;;3.15;;
28266;SDS011;15525;45.568;5.448;2023-08-01T10:21:50;5.45;;;3.22;;
28266;SDS011;15525;45.568;5.448;2023-08-01T10:24:17;6.60;;;4.35;;
28266;SDS011;15525;45.568;5.448;2023-08-01T10:26:45;7.35;;;4.10;;
28266;SDS011;15525;45.568;5.448;2023-08-01T10:29:11;6.47;;;4.10;;
28266;SDS011;15525;45.568;5.448;2023-08-01T10:31:37;9.32;;;4.47;;
28266;SDS011;15525;45.568;5.448;2023-08-01T10:34:04;7.75;;;4.28;;
28266;SDS011;15525;45.568;5.448;2023-08-01T10:36:31;9.30;;;4.55;;
28266;SDS011;15525;45.568;5.448;2023-08-01T10:38:58;7.22;;;4.32;;
28266;SDS011;15525;45.568;5.448;2023-08-01T10:41:34;5.55;;;4.25;;
28266;SDS011;15525;45.568;5.448;2023-08-01T10:44:13;5.68;;;3.88;;
28266;SDS011;15525;45.568;5.448;2023-08-01T10:47:02;6.65;;;4.28;;
28266;SDS011;15525;45.568;5.448;2023-08-01T10:49:33;7.10;;;4.25;;
28266;SDS011;15525;45.568;5.448;2023-08-01T10:51:59;5.85;;;3.95;;
28266;SDS011;15525;45.568;5.448;2023-08-01T10:54:25;6.22;;;3.92;;
28266;SDS011;15525;45.568;5.448;2023-08-01T10:56:52;5.18;;;3.92;;
28266;SDS011;15525;45.568;5.448;2023-08-01T10:59:19;3.92;;;2.75;;
28266;SDS011;15525;45.568;5.448;2023-08-01T11:01:47;5.72;;;3.35;;
28266;SDS011;15525;45.568;5.448;2023-08-01T11:04:17;6.50;;;3.72;;
28266;SDS011;15525;45.568;5.448;2023-08-01T11:06:51;4.40;;;3.42;;
28266;SDS011;15525;45.568;5.448;2023-08-01T11:09:21;5.03;;;3.50;;
28266;SDS011;15525;45.568;5.448;2023-08-01T11:11:50;4.57;;;3.20;;
28266;SDS011;15525;45.568;5.448;2023-08-01T11:14:19;4.95;;;3.50;;
28266;SDS011;15525;45.568;5.448;2023-08-01T11:16:45;5.90;;;3.40;;
28266;SDS011;15525;45.568;5.448;2023-08-01T11:19:25;6.10;;;3.55;;
28266;SDS011;15525;45.568;5.448;2023-08-01T11:21:52;5.47;;;3.45;;
28266;SDS011;15525;45.568;5.448;2023-08-01T11:24:21;4.50;;;3.28;;
28266;SDS011;15525;45.568;5.448;2023-08-01T11:26:47;5.78;;;3.30;;
28266;SDS011;15525;45.568;5.448;2023-08-01T11:29:14;4.30;;;2.92;;
28266;SDS011;15525;45.568;5.448;2023-08-01T11:31:41;4.60;;;3.50;;
28266;SDS011;15525;45.568;5.448;2023-08-01T11:34:17;4.53;;;3.53;;
28266;SDS011;15525;45.568;5.448;2023-08-01T11:36:43;5.00;;;3.35;;
28266;SDS011;15525;45.568;5.448;2023-08-01T11:39:10;4.03;;;3.08;;
28266;SDS011;15525;45.568;5.448;2023-08-01T11:41:37;4.38;;;3.30;;
28266;SDS011;15525;45.568;5.448;2023-08-01T11:44:03;4.97;;;3.58;;
28266;SDS011;15525;45.568;5.448;2023-08-01T11:46:33;6.07;;;3.38;;
28266;SDS011;15525;45.568;5.448;2023-08-01T11:49:00;7.40;;;4.15;;
28266;SDS011;15525;45.568;5.448;2023-08-01T11:51:27;4.95;;;3.63;;
28266;SDS011;15525;45.568;5.448;2023-08-01T11:54:00;5.13;;;3.53;;
28266;SDS011;15525;45.568;5.448;2023-08-01T11:56:27;4.57;;;3.30;;
28266;SDS011;15525;45.568;5.448;2023-08-01T11:58:52;3.97;;;3.33;;
28266;SDS011;15525;45.568;5.448;2023-08-01T12:01:18;5.03;;;3.70;;
28266;SDS011;15525;45.568;5.448;2023-08-01T12:03:44;4.45;;;3.72;;
28266;SDS011;15525;45.568;5.448;2023-08-01T12:06:11;6.60;;;4.15;;
28266;SDS011;15525;45.568;5.448;2023-08-01T12:08:38;6.15;;;3.95;;
28266;SDS011;15525;45.568;5.448;2023-08-01T12:11:05;4.82;;;3.70;;
28266;SDS011;15525;45.568;5.448;2023-08-01T12:13:30;4.53;;;3.38;;
28266;SDS011;15525;45.568;5.448;2023-08-01T12:15:56;4.63;;;3.15;;
28266;SDS011;15525;45.568;5.448;2023-08-01T12:18:26;4.10;;;3.40;;
28266;SDS011;15525;45.568;5.448;2023-08-01T12:20:52;5.47;;;3.00;;
28266;SDS011;15525;45.568;5.448;2023-08-01T12:23:18;6.88;;;3.70;;
28266;SDS011;15525;45.568;5.448;2023-08-01T12:25:44;5.40;;;3.40;;
28266;SDS011;15525;45.568;5.448;2023-08-01T12:28:11;4.07;;;3.25;;
28266;SDS011;15525;45.568;5.448;2023-08-01T12:30:39;4.03;;;3.10;;
28266;SDS011;15525;45.568;5.448;2023-08-01T12:33:06;4.93;;;3.10;;
28266;SDS011;15525;45.568;5.448;2023-08-01T12:35:32;3.03;;;2.70;;
28266;SDS011;15525;45.568;5.448;2023-08-01T12:37:58;3.85;;;2.80;;
28266;SDS011;15525;45.568;5.448;2023-08-01T12:40:23;5.85;;;3.03;;
28266;SDS011;15525;45.568;5.448;2023-08-01T12:42:49;5.88;;;3.10;;
28266;SDS011;15525;45.568;5.448;2023-08-01T12:45:14;3.53;;;3.17;;
28266;SDS011;15525;45.568;5.448;2023-08-01T12:47:39;3.85;;;2.90;;
28266;SDS011;15525;45.568;5.448;2023-08-01T12:50:05;3.17;;;2.65;;
28266;SDS011;15525;45.568;5.448;2023-08-01T12:52:31;3.53;;;2.97;;
28266;SDS011;15525;45.568;5.448;2023-08-01T12:54:56;4.28;;;3.17;;
28266;SDS011;15525;45.568;5.448;2023-08-01T12:57:22;3.70;;;3.00;;
28266;SDS011;15525;45.568;5.448;2023-08-01T12:59:48;3.03;;;2.45;;
28266;SDS011;15525;45.568;5.448;2023-08-01T13:02:14;5.00;;;2.80;;
28266;SDS011;15525;45.568;5.448;2023-08-01T13:04:39;4.88;;;2.75;;
28266;SDS011;15525;45.568;5.448;2023-08-01T13:07:05;4.25;;;3.00;;
28266;SDS011;15525;45.568;5.448;2023-08-01T13:09:30;2.97;;;2.63;;
28266;SDS011;15525;45.568;5.448;2023-08-01T13:11:56;3.75;;;2.90;;
28266;SDS011;15525;45.568;5.448;2023-08-01T13:14:21;3.63;;;2.90;;
28266;SDS011;15525;45.568;5.448;2023-08-01T13:16:48;4.93;;;3.33;;
28266;SDS011;15525;45.568;5.448;2023-08-01T13:19:13;5.15;;;3.20;;
28266;SDS011;15525;45.568;5.448;2023-08-01T13:21:39;4.10;;;2.85;;
28266;SDS011;15525;45.568;5.448;2023-08-01T13:24:04;3.20;;;2.90;;
28266;SDS011;15525;45.568;5.448;2023-08-01T13:26:33;5.53;;;3.03;;
28266;SDS011;15525;45.568;5.448;2023-08-01T13:28:59;4.45;;;3.10;;
28266;SDS011;15525;45.568;5.448;2023-08-01T13:31:27;4.97;;;2.97;;
28266;SDS011;15525;45.568;5.448;2023-08-01T13:33:53;7.90;;;3.30;;
28266;SDS011;15525;45.568;5.448;2023-08-01T13:36:19;7.50;;;3.70;;
28266;SDS011;15525;45.568;5.448;2023-08-01T13:38:45;4.25;;;2.97;;
28266;SDS011;15525;45.568;5.448;2023-08-01T13:41:10;6.47;;;2.97;;
28266;SDS011;15525;45.568;5.448;2023-08-01T13:43:36;11.57;;;4.45;;
28266;SDS011;15525;45.568;5.448;2023-08-01T13:46:17;11.75;;;4.68;;
28266;SDS011;15525;45.568;5.448;2023-08-01T13:48:44;4.75;;;2.97;;
28266;SDS011;15525;45.568;5.448;2023-08-01T13:51:10;10.05;;;3.90;;
28266;SDS011;15525;45.568;5.448;2023-08-01T13:53:36;5.47;;;3.10;;
28266;SDS011;15525;45.568;5.448;2023-08-01T13:56:09;5.10;;;4.05;;
28266;SDS011;15525;45.568;5.448;2023-08-01T13:58:37;5.75;;;3.00;;
28266;SDS011;15525;45.568;5.448;2023-08-01T14:01:07;5.82;;;3.13;;
28266;SDS011;15525;45.568;5.448;2023-08-01T14:03:34;2.83;;;2.40;;
28266;SDS011;15525;45.568;5.448;2023-08-01T14:06:08;3.95;;;2.45;;
28266;SDS011;15525;45.568;5.448;2023-08-01T14:08:34;3.78;;;2.67;;
28266;SDS011;15525;45.568;5.448;2023-08-01T14:11:04;6.15;;;3.28;;
28266;SDS011;15525;45.568;5.448;2023-08-01T14:13:31;3.83;;;2.83;;
28266;SDS011;15525;45.568;5.448;2023-08-01T14:15:57;4.68;;;3.20;;
28266;SDS011;15525;45.568;5.448;2023-08-01T14:18:22;5.15;;;3.00;;
28266;SDS011;15525;45.568;5.448;2023-08-01T14:20:48;4.38;;;2.75;;
28266;SDS011;15525;45.568;5.448;2023-08-01T14:23:14;3.78;;;2.67;;
28266;SDS011;15525;45.568;5.448;2023-08-01T14:25:39;4.68;;;2.97;;
28266;SDS011;15525;45.568;5.448;2023-08-01T14:28:05;3.95;;;2.83;;
28266;SDS011;15525;45.568;5.448;2023-08-01T14:30:30;3.67;;;2.92;;
28266;SDS011;15525;45.568;5.448;2023-08-01T14:33:00;6.22;;;3.10;;
28266;SDS011;15525;45.568;5.448;2023-08-01T14:35:29;3.70;;;2.70;;
28266;SDS011;15525;45.568;5.448;2023-08-01T14:37:55;5.75;;;2.83;;
28266;SDS011;15525;45.568;5.448;2023-08-01T14:40:21;4.90;;;2.70;;
28266;SDS011;15525;45.568;5.448;2023-08-01T14:42:47;4.93;;;2.90;;
28266;SDS011;15525;45.568;5.448;2023-08-01T14:45:12;4.70;;;3.00;;